createdAt,value
2022-12-06T00:01:44.258Z,101407.22
2022-12-06T00:04:16.145Z,101407.75
2022-12-06T00:06:51.604Z,101406.97
2022-12-06T00:09:23.831Z,101403.66
2022-12-06T00:11:54.011Z,101410.78
2022-12-06T00:14:24.156Z,101403.28
2022-12-06T00:16:54.393Z,101406.34
2022-12-06T00:19:25.906Z,101407.22
2022-12-06T00:21:58.150Z,101412.31
2022-12-06T00:24:27.775Z,101410.16
2022-12-06T00:26:57.311Z,101410.63
2022-12-06T00:29:27.329Z,101405.41
2022-12-06T00:31:57.080Z,101406.16
2022-12-06T00:34:26.802Z,101415.72
2022-12-06T00:36:58.999Z,101417.41
2022-12-06T00:39:28.589Z,101404.81
2022-12-06T00:41:58.542Z,101407.75
2022-12-06T00:44:28.106Z,101397.03
2022-12-06T00:46:57.775Z,101400.13
2022-12-06T00:49:27.385Z,101388.03
2022-12-06T00:51:59.596Z,101397.59
2022-12-06T00:54:29.226Z,101390.88
2022-12-06T00:56:58.859Z,101386.66
2022-12-06T00:59:28.443Z,101378.75
2022-12-06T01:01:58.198Z,101382.81
2022-12-06T01:04:27.733Z,101378.88
2022-12-06T01:06:59.947Z,101382.84
2022-12-06T01:09:31.046Z,101384.38
2022-12-06T01:12:00.846Z,101375.97
2022-12-06T01:14:30.481Z,101382.50
2022-12-06T01:17:00.203Z,101376.25
2022-12-06T01:19:30.506Z,101378.53
2022-12-06T01:22:02.759Z,101378.81
2022-12-06T01:24:32.381Z,101378.28
2022-12-06T01:27:01.944Z,101375.22
2022-12-06T01:29:31.521Z,101376.75
2022-12-06T01:32:01.189Z,101374.97
2022-12-06T01:34:30.819Z,101378.03
2022-12-06T01:37:03.055Z,101376.38
2022-12-06T01:39:32.599Z,101376.00
2022-12-06T01:42:02.464Z,101367.31
2022-12-06T01:44:43.587Z,101373.97
2022-12-06T01:47:18.798Z,101381.38
2022-12-06T01:49:54.793Z,101370.91
2022-12-06T01:52:29.188Z,101372.69
2022-12-06T01:54:59.472Z,101370.28
2022-12-06T01:57:29.391Z,101372.06
2022-12-06T01:59:59.150Z,101374.72
2022-12-06T02:02:29.148Z,101371.44
2022-12-06T02:04:59.644Z,101373.22
2022-12-06T02:07:32.734Z,101371.16
2022-12-06T02:10:02.572Z,101366.72
2022-12-06T02:12:32.310Z,101359.16
2022-12-06T02:15:02.910Z,101355.84
2022-12-06T02:17:41.839Z,101344.00
2022-12-06T02:20:21.816Z,101347.19
2022-12-06T02:23:09.537Z,101337.50
2022-12-06T02:26:03.990Z,101340.81
2022-12-06T02:29:02.242Z,101335.47
2022-12-06T02:31:37.473Z,101334.31
2022-12-06T02:34:12.082Z,101334.94
2022-12-06T02:36:45.393Z,101336.09
2022-12-06T02:39:19.603Z,101330.63
2022-12-06T02:41:53.892Z,101330.63
2022-12-06T02:44:29.239Z,101332.16
2022-12-06T02:47:02.453Z,101332.41
2022-12-06T02:49:34.807Z,101328.22
2022-12-06T02:52:04.952Z,101335.09
2022-12-06T02:54:34.998Z,101331.75
2022-12-06T02:57:04.671Z,101331.34
2022-12-06T02:59:34.306Z,101337.88
2022-12-06T03:02:09.738Z,101335.19
2022-12-06T03:04:49.848Z,101329.44
2022-12-06T03:07:28.640Z,101332.13
2022-12-06T03:10:07.206Z,101333.41
2022-12-06T03:12:43.478Z,101328.31
2022-12-06T03:15:17.193Z,101330.34
2022-12-06T03:17:51.557Z,101325.88
2022-12-06T03:20:27.753Z,101320.00
2022-12-06T03:23:02.410Z,101324.09
2022-12-06T03:25:32.269Z,101322.16
2022-12-06T03:28:02.583Z,101325.25
2022-12-06T03:30:33.880Z,101324.59
2022-12-06T03:33:06.575Z,101328.31
2022-12-06T03:35:37.413Z,101326.03
2022-12-06T03:38:09.273Z,101333.41
2022-12-06T03:40:41.451Z,101334.41
2022-12-06T03:43:11.034Z,101328.31
2022-12-06T03:45:44.076Z,101327.81
2022-12-06T03:48:19.041Z,101330.50
2022-12-06T03:50:56.944Z,101338.50
2022-12-06T03:53:28.029Z,101334.41
2022-12-06T03:55:57.611Z,101336.09
2022-12-06T03:58:27.148Z,101334.41
2022-12-06T04:01:04.791Z,101327.66
2022-12-06T04:03:37.042Z,101335.78
2022-12-06T04:06:07.188Z,101318.28
2022-12-06T04:08:37.084Z,101301.41
2022-12-06T04:11:06.874Z,101299.63
2022-12-06T04:13:36.568Z,101301.66
2022-12-06T04:16:26.441Z,101301.25
2022-12-06T04:18:56.311Z,101311.03
2022-12-06T04:21:38.305Z,101323.97
2022-12-06T04:24:08.897Z,101339.88
2022-12-06T04:26:38.475Z,101343.94
2022-12-06T04:29:20.446Z,101347.28
2022-12-06T04:32:02.500Z,101352.84
2022-12-06T04:34:47.100Z,101364.78
2022-12-06T04:37:29.123Z,101360.34
2022-12-06T04:39:59.163Z,101363.38
2022-12-06T04:42:41.401Z,101367.47
2022-12-06T04:45:12.717Z,101360.59
2022-12-06T04:47:42.245Z,101367.88
2022-12-06T04:50:14.472Z,101361.31
2022-12-06T04:52:43.986Z,101361.59
2022-12-06T04:55:13.612Z,101369.44
2022-12-06T04:57:43.382Z,101369.19
2022-12-06T05:00:13.997Z,101363.19
2022-12-06T05:02:43.525Z,101370.72
2022-12-06T05:05:15.635Z,101366.81
2022-12-06T05:07:45.232Z,101369.63
2022-12-06T05:10:14.824Z,101367.16
2022-12-06T05:12:44.458Z,101372.28
2022-12-06T05:15:15.967Z,101364.50
2022-12-06T05:17:45.604Z,101372.03
2022-12-06T05:20:18.086Z,101362.88
2022-12-06T05:22:47.604Z,101367.81
2022-12-06T05:25:17.194Z,101374.28
2022-12-06T05:27:46.882Z,101383.69
2022-12-06T05:30:16.942Z,101378.47
2022-12-06T05:32:46.516Z,101373.88
2022-12-06T05:35:18.705Z,101378.75
2022-12-06T05:37:48.234Z,101377.91
2022-12-06T05:40:17.838Z,101372.03
2022-12-06T05:42:47.342Z,101360.53
2022-12-06T05:45:16.878Z,101362.25
2022-12-06T05:47:46.423Z,101359.53
2022-12-06T05:50:18.736Z,101356.72
2022-12-06T05:52:48.229Z,101353.50
2022-12-06T05:55:17.881Z,101353.72
2022-12-06T05:57:47.585Z,101348.97
2022-12-06T06:00:18.220Z,101353.88
2022-12-06T06:02:48.872Z,101353.00
2022-12-06T06:05:21.553Z,101345.00
2022-12-06T06:07:51.362Z,101340.50
2022-12-06T06:10:21.382Z,101350.19
2022-12-06T06:12:50.959Z,101345.72
2022-12-06T06:15:21.066Z,101341.03
2022-12-06T06:17:50.582Z,101342.09
2022-12-06T06:20:22.942Z,101329.56
2022-12-06T06:22:52.463Z,101332.97
2022-12-06T06:25:22.106Z,101331.34
2022-12-06T06:27:51.685Z,101332.13
2022-12-06T06:30:21.718Z,101326.03
2022-12-06T06:32:51.242Z,101327.25
2022-12-06T06:35:23.370Z,101331.84
2022-12-06T06:37:52.879Z,101326.91
2022-12-06T06:40:22.478Z,101323.19
2022-12-06T06:42:52.069Z,101330.22
2022-12-06T06:45:28.181Z,101328.44
2022-12-06T06:47:58.367Z,101323.25
2022-12-06T06:50:30.936Z,101325.16
2022-12-06T06:53:00.436Z,101337.00
2022-12-06T06:55:30.322Z,101323.97
2022-12-06T06:57:59.867Z,101324.53
2022-12-06T07:00:29.430Z,101323.25
2022-12-06T07:02:59.028Z,101326.81
2022-12-06T07:05:31.303Z,101324.75
2022-12-06T07:08:00.871Z,101320.63
2022-12-06T07:10:31.611Z,101312.06
2022-12-06T07:13:01.192Z,101304.66
2022-12-06T07:15:30.726Z,101316.34
2022-12-06T07:18:00.280Z,101315.44
2022-12-06T07:20:32.480Z,101327.19
2022-12-06T07:23:02.031Z,101328.47
2022-12-06T07:25:32.056Z,101339.03
2022-12-06T07:28:01.599Z,101340.06
2022-12-06T07:30:31.302Z,101341.81
2022-12-06T07:33:01.503Z,101356.81
2022-12-06T07:36:03.657Z,101362.53
2022-12-06T07:38:23.166Z,101367.03
2022-12-06T07:41:07.962Z,101368.31
2022-12-06T07:43:50.006Z,101373.16
2022-12-06T07:46:19.615Z,101371.91
2022-12-06T07:48:49.158Z,101375.47
2022-12-06T07:51:21.257Z,101377.53
2022-12-06T07:53:50.816Z,101378.94
2022-12-06T07:56:20.343Z,101381.84
2022-12-06T07:58:49.910Z,101372.66
2022-12-06T08:01:19.458Z,101376.94
2022-12-06T08:03:49.035Z,101369.25
2022-12-06T08:06:21.146Z,101377.41
2022-12-06T08:08:50.743Z,101372.69
2022-12-06T08:11:20.685Z,101379.06
2022-12-06T08:13:50.203Z,101383.00
2022-12-06T08:16:20.160Z,101382.75
2022-12-06T08:18:49.969Z,101376.53
2022-12-06T08:21:22.168Z,101385.31
2022-12-06T08:23:51.700Z,101377.28
2022-12-06T08:26:21.418Z,101379.81
2022-12-06T08:28:51.304Z,101373.06
2022-12-06T08:31:22.120Z,101372.19
2022-12-06T08:33:52.557Z,101375.22
2022-12-06T08:36:25.792Z,101379.06
2022-12-06T08:38:55.531Z,101370.38
2022-12-06T08:41:38.190Z,101358.56
2022-12-06T08:44:08.423Z,101362.47
2022-12-06T08:46:38.457Z,101362.22
2022-12-06T08:49:08.306Z,101359.16
2022-12-06T08:51:40.454Z,101352.56
2022-12-06T08:54:11.219Z,101345.28
2022-12-06T08:56:40.866Z,101354.59
2022-12-06T08:59:10.916Z,101350.50
2022-12-06T09:01:40.990Z,101359.16
2022-12-06T09:04:12.272Z,101356.75
2022-12-06T09:06:45.651Z,101355.22
2022-12-06T09:09:16.758Z,101353.19
2022-12-06T09:11:47.258Z,101349.09
2022-12-06T09:14:22.042Z,101354.47
2022-12-06T09:16:53.060Z,101357.63
2022-12-06T09:19:22.911Z,101348.09
2022-12-06T09:21:55.047Z,101356.38
2022-12-06T09:24:27.333Z,101352.81
2022-12-06T09:26:57.025Z,101356.63
2022-12-06T09:29:26.738Z,101352.94
2022-12-06T09:31:56.375Z,101354.09
2022-12-06T09:34:26.003Z,101354.97
2022-12-06T09:37:01.304Z,101358.91
2022-12-06T09:39:33.973Z,101355.88
2022-12-06T09:42:30.478Z,101355.09
2022-12-06T09:45:16.048Z,101357.75
2022-12-06T09:47:56.560Z,101346.53
2022-12-06T09:50:31.709Z,101348.72
2022-12-06T09:53:14.052Z,101353.06
2022-12-06T09:55:53.292Z,101344.78
2022-12-06T09:58:34.190Z,101350.13
2022-12-06T10:01:10.113Z,101340.59
2022-12-06T10:03:49.177Z,101335.13
2022-12-06T10:06:20.234Z,101340.84
2022-12-06T10:09:09.065Z,101340.03
2022-12-06T10:11:47.032Z,101335.22
2022-12-06T10:14:28.101Z,101334.97
2022-12-06T10:17:08.673Z,101333.69
2022-12-06T10:19:49.037Z,101333.81
2022-12-06T10:22:22.628Z,101336.59
2022-12-06T10:25:02.026Z,101342.75
2022-12-06T10:27:39.979Z,101349.06
2022-12-06T10:30:14.576Z,101346.75
2022-12-06T10:33:05.690Z,101347.44
2022-12-06T10:35:45.071Z,101350.75
2022-12-06T10:38:23.076Z,101352.03
2022-12-06T10:41:03.198Z,101363.66
2022-12-06T10:43:39.205Z,101366.69
2022-12-06T10:46:24.867Z,101367.59
2022-12-06T10:49:01.268Z,101362.75
2022-12-06T10:51:36.101Z,101359.94
2022-12-06T10:54:15.183Z,101363.88
2022-12-06T10:56:47.778Z,101354.97
2022-12-06T10:59:27.121Z,101358.91
2022-12-06T11:02:01.123Z,101347.44
2022-12-06T11:04:34.906Z,101352.41
2022-12-06T11:07:09.044Z,101334.13
2022-12-06T11:09:42.287Z,101334.03
2022-12-06T11:12:31.245Z,101338.59
2022-12-06T11:15:04.824Z,101345.63
2022-12-06T11:17:35.693Z,101355.56
2022-12-06T11:20:09.450Z,101360.44
2022-12-06T11:22:43.630Z,101369.13
2022-12-06T11:25:19.900Z,101364.78
2022-12-06T11:27:53.733Z,101360.97
2022-12-06T11:30:24.433Z,101358.28
2022-12-06T11:32:55.641Z,101356.88
2022-12-06T11:35:28.732Z,101354.69
2022-12-06T11:38:00.914Z,101341.59
2022-12-06T11:40:32.458Z,101340.56
2022-12-06T11:43:07.262Z,101336.72
2022-12-06T11:45:38.173Z,101333.94
2022-12-06T11:48:16.158Z,101323.63
2022-12-06T11:50:46.986Z,101321.44
2022-12-06T11:53:23.217Z,101312.13
2022-12-06T11:55:55.182Z,101309.69
2022-12-06T11:58:31.047Z,101309.97
2022-12-06T12:01:04.251Z,101302.09
2022-12-06T12:03:35.418Z,101303.88
2022-12-06T12:06:15.918Z,101294.84
2022-12-06T12:08:54.142Z,101292.91
2022-12-06T12:11:24.606Z,101286.94
2022-12-06T12:13:59.077Z,101287.09
2022-12-06T12:16:31.647Z,101276.91
2022-12-06T12:19:03.352Z,101275.22
2022-12-06T12:21:39.263Z,101268.13
2022-12-06T12:24:30.046Z,101263.91
2022-12-06T12:26:59.639Z,101252.81
2022-12-06T12:29:31.902Z,101256.63
2022-12-06T12:32:02.536Z,101249.88
2022-12-06T12:34:33.254Z,101248.13
2022-12-06T12:37:04.627Z,101244.03
2022-12-06T12:39:36.442Z,101239.19
2022-12-06T12:42:06.504Z,101240.84
2022-12-06T12:44:40.877Z,101236.38
2022-12-06T12:47:20.006Z,101242.63
2022-12-06T12:50:03.581Z,101247.09
2022-12-06T12:52:37.133Z,101246.84
2022-12-06T12:55:18.697Z,101243.41
2022-12-06T12:57:50.074Z,101234.38
2022-12-06T13:00:27.419Z,101242.13
2022-12-06T13:03:00.521Z,101236.13
2022-12-06T13:05:34.720Z,101243.25
2022-12-06T13:08:10.099Z,101237.91
2022-12-06T13:10:41.547Z,101235.34
2022-12-06T13:13:17.363Z,101241.47
2022-12-06T13:15:51.319Z,101230.72
2022-12-06T13:18:23.866Z,101226.47
2022-12-06T13:20:56.518Z,101229.69
2022-12-06T13:23:28.123Z,101225.25
2022-12-06T13:26:04.370Z,101238.00
2022-12-06T13:28:36.412Z,101248.44
2022-12-06T13:31:14.619Z,101265.38
2022-12-06T13:33:49.890Z,101275.69
2022-12-06T13:36:20.357Z,101275.84
2022-12-06T13:38:50.990Z,101288.09
2022-12-06T13:42:07.633Z,101298.66
2022-12-06T13:44:44.402Z,101300.56
2022-12-06T13:47:51.945Z,101302.13
2022-12-06T13:50:51.596Z,101305.66
2022-12-06T13:53:21.629Z,101311.50
2022-12-06T13:56:01.853Z,101314.94
2022-12-06T13:58:54.146Z,101318.63
2022-12-06T14:01:43.074Z,101318.00
2022-12-06T14:04:39.629Z,101308.97
2022-12-06T14:09:43.725Z,101319.88
2022-12-06T14:12:21.198Z,101302.84
2022-12-06T14:15:00.118Z,101298.66
2022-12-06T14:18:00.697Z,101301.34
2022-12-06T14:20:30.130Z,101302.97
2022-12-06T14:22:59.939Z,101308.97
2022-12-06T14:25:31.729Z,101297.75
2022-12-06T14:28:06.754Z,101300.16
2022-12-06T14:30:36.836Z,101305.25
2022-12-06T14:33:20.393Z,101300.00
2022-12-06T14:35:56.743Z,101289.69
2022-12-06T14:38:27.971Z,101287.81
2022-12-06T14:41:10.358Z,101281.44
2022-12-06T14:43:40.365Z,101275.81
2022-12-06T14:46:13.088Z,101273.78
2022-12-06T14:48:55.199Z,101278.00
2022-12-06T14:51:29.216Z,101280.03
2022-12-06T14:54:01.887Z,101275.84
2022-12-06T14:56:34.411Z,101274.69
2022-12-06T14:59:12.354Z,101268.72
2022-12-06T15:01:49.920Z,101265.38
2022-12-06T15:04:28.079Z,101262.84
2022-12-06T15:07:00.396Z,101255.97
2022-12-06T15:09:32.115Z,101257.75
2022-12-06T15:12:35.106Z,101269.97
2022-12-06T15:15:04.747Z,101263.34
2022-12-06T15:17:34.444Z,101270.19
2022-12-06T15:20:14.114Z,101266.88
2022-12-06T15:22:46.511Z,101265.34
2022-12-06T15:25:16.630Z,101258.25
2022-12-06T15:27:46.223Z,101270.19
2022-12-06T15:30:16.433Z,101273.47
2022-12-06T15:32:47.101Z,101273.97
2022-12-06T15:35:20.164Z,101276.13
2022-12-06T15:37:52.462Z,101277.88
2022-12-06T15:40:23.056Z,101274.16
2022-12-06T15:42:56.575Z,101277.19
2022-12-06T15:45:28.732Z,101274.50
2022-12-06T15:47:58.311Z,101268.03
2022-12-06T15:50:28.905Z,101265.34
2022-12-06T15:53:01.040Z,101267.19
2022-12-06T15:55:31.002Z,101272.16
2022-12-06T15:58:00.642Z,101278.06
2022-12-06T16:00:30.242Z,101271.13
2022-12-06T16:02:59.934Z,101266.28
2022-12-06T16:05:29.782Z,101272.88
2022-12-06T16:08:02.070Z,101269.88
2022-12-06T16:10:55.599Z,101272.47
2022-12-06T16:13:24.686Z,101275.63
2022-12-06T16:15:54.757Z,101270.63
2022-12-06T16:18:24.350Z,101268.47
2022-12-06T16:20:53.971Z,101267.06
2022-12-06T16:24:11.833Z,101266.63
2022-12-06T16:26:31.079Z,101271.03
2022-12-06T16:29:01.037Z,101262.78
2022-12-06T16:31:33.148Z,101262.09
2022-12-06T16:34:06.022Z,101266.78
2022-12-06T16:36:36.156Z,101267.59
2022-12-06T16:39:08.589Z,101259.97
2022-12-06T16:41:38.980Z,101255.38
2022-12-06T16:44:08.583Z,101254.34
2022-12-06T16:46:38.927Z,101251.03
2022-12-06T16:49:44.195Z,101257.56
2022-12-06T16:51:59.940Z,101254.75
2022-12-06T16:54:32.089Z,101254.94
2022-12-06T16:57:01.747Z,101250.78
2022-12-06T16:59:31.273Z,101254.56
2022-12-06T17:02:04.150Z,101245.03
2022-12-06T17:04:35.560Z,101249.97
2022-12-06T17:07:05.179Z,101240.28
2022-12-06T17:09:37.353Z,101249.47
2022-12-06T17:12:12.728Z,101244.41
2022-12-06T17:14:42.943Z,101245.66
2022-12-06T17:17:16.141Z,101241.44
2022-12-06T17:19:47.054Z,101230.69
2022-12-06T17:22:18.977Z,101236.53
2022-12-06T17:24:51.569Z,101230.75
2022-12-06T17:27:21.258Z,101233.63
2022-12-06T17:29:51.030Z,101226.28
2022-12-06T17:32:21.259Z,101222.53
2022-12-06T17:34:50.913Z,101224.78
2022-12-06T17:37:20.510Z,101226.00
2022-12-06T17:39:52.818Z,101214.63
2022-12-06T17:42:34.842Z,101218.97
2022-12-06T17:45:05.198Z,101224.03
2022-12-06T17:47:35.233Z,101223.66
2022-12-06T17:50:05.559Z,101219.81
2022-12-06T17:52:35.382Z,101208.13
2022-12-06T17:55:09.445Z,101207.50
2022-12-06T17:57:39.131Z,101198.91
2022-12-06T18:00:10.333Z,101197.13
2022-12-06T18:02:40.163Z,101202.88
2022-12-06T18:05:10.754Z,101195.81
2022-12-06T18:07:40.474Z,101198.34
2022-12-06T18:10:14.446Z,101196.31
2022-12-06T18:12:43.999Z,101189.53
2022-12-06T18:15:35.822Z,101190.84
2022-12-06T18:18:05.448Z,101194.00
2022-12-06T18:20:35.047Z,101183.84
2022-12-06T18:23:04.936Z,101179.94
2022-12-06T18:25:39.992Z,101182.38
2022-12-06T18:30:48.587Z,101182.66
2022-12-06T18:33:21.350Z,101183.34
2022-12-06T18:35:53.554Z,101180.94
2022-12-06T18:38:23.641Z,101183.34
2022-12-06T18:40:53.146Z,101184.00
2022-12-06T18:43:22.713Z,101169.00
2022-12-06T18:46:00.719Z,101166.88
2022-12-06T18:48:31.280Z,101177.16
2022-12-06T18:51:01.115Z,101176.22
2022-12-06T18:53:30.692Z,101177.75
2022-12-06T18:56:00.298Z,101176.84
2022-12-06T18:58:29.896Z,101181.03
2022-12-06T19:01:02.147Z,101180.31
2022-12-06T19:03:32.380Z,101174.09
2022-12-06T19:06:03.523Z,101171.94
2022-12-06T19:08:33.949Z,101177.59
2022-12-06T19:11:04.064Z,101180.56
2022-12-06T19:13:33.694Z,101177.47
2022-12-06T19:16:07.373Z,101174.28
2022-12-06T19:18:36.961Z,101171.56
2022-12-06T19:21:06.646Z,101174.91
2022-12-06T19:23:36.342Z,101158.91
2022-12-06T19:26:06.989Z,101154.41
2022-12-06T19:28:36.856Z,101153.38
2022-12-06T19:31:11.163Z,101156.94
2022-12-06T19:33:42.626Z,101155.91
2022-12-06T19:36:16.103Z,101148.22
2022-12-06T19:38:46.376Z,101149.44
2022-12-06T19:41:18.402Z,101149.56
2022-12-06T19:44:00.514Z,101138.47
2022-12-06T19:46:33.864Z,101139.84
2022-12-06T19:49:05.742Z,101134.50
2022-12-06T19:51:37.271Z,101126.41
2022-12-06T19:54:08.072Z,101119.22
2022-12-06T19:56:38.713Z,101123.50
2022-12-06T19:59:11.805Z,101127.72
2022-12-06T20:01:45.727Z,101118.88
2022-12-06T20:04:17.329Z,101109.59
2022-12-06T20:06:48.187Z,101114.97
2022-12-06T20:09:19.148Z,101109.00
2022-12-06T20:12:05.250Z,101097.84
2022-12-06T20:14:40.423Z,101086.09
2022-12-06T20:17:14.213Z,101082.94
2022-12-06T20:19:46.268Z,101083.28
2022-12-06T20:22:17.162Z,101086.31
2022-12-06T20:24:46.982Z,101080.81
2022-12-06T20:27:16.809Z,101071.25
2022-12-06T20:29:46.361Z,101067.09
2022-12-06T20:32:18.531Z,101057.34
2022-12-06T20:34:48.070Z,101054.81
2022-12-06T20:37:18.030Z,101053.16
2022-12-06T20:39:47.611Z,101050.41
2022-12-06T20:42:17.120Z,101046.97
2022-12-06T20:44:46.714Z,101041.03
2022-12-06T20:47:19.018Z,101043.69
2022-12-06T20:49:48.665Z,101036.97
2022-12-06T20:52:18.247Z,101038.88
2022-12-06T20:54:47.860Z,101029.50
2022-12-06T20:57:17.407Z,101021.41
2022-12-06T20:59:47.027Z,101014.31
2022-12-06T21:02:19.303Z,101009.34
2022-12-06T21:04:49.203Z,100998.81
2022-12-06T21:07:18.826Z,101001.88
2022-12-06T21:09:48.481Z,100984.09
2022-12-06T21:12:20.213Z,100982.31
2022-12-06T21:14:49.814Z,100975.47
2022-12-06T21:17:22.021Z,100966.94
2022-12-06T21:19:51.770Z,100962.00
2022-12-06T21:22:21.683Z,100950.84
2022-12-06T21:24:51.307Z,100942.94
2022-12-06T21:27:20.899Z,100950.06
2022-12-06T21:29:50.422Z,100937.09
2022-12-06T21:32:22.723Z,100924.41
2022-12-06T21:34:52.314Z,100929.78
2022-12-06T21:37:21.895Z,100925.69
2022-12-06T21:39:51.587Z,100922.53
2022-12-06T21:42:21.749Z,100914.28
2022-12-06T21:44:51.669Z,100907.81
2022-12-06T21:47:23.858Z,100905.66
2022-12-06T21:49:53.430Z,100907.34
2022-12-06T21:52:23.038Z,100902.38
2022-12-06T21:54:52.710Z,100899.34
2022-12-06T21:57:22.357Z,100897.69
2022-12-06T21:59:51.967Z,100893.63
2022-12-06T22:02:24.242Z,100888.91
2022-12-06T22:04:53.946Z,100885.88
2022-12-06T22:07:23.574Z,100882.09
2022-12-06T22:09:53.610Z,100877.50
2022-12-06T22:12:23.182Z,100860.72
2022-12-06T22:14:52.770Z,100864.78
2022-12-06T22:17:25.234Z,100860.25
2022-12-06T22:19:54.890Z,100858.56
2022-12-06T22:22:24.737Z,100850.06
2022-12-06T22:24:54.292Z,100849.03
2022-12-06T22:27:23.902Z,100838.09
2022-12-06T22:29:54.307Z,100826.16
2022-12-06T22:32:26.525Z,100823.84
2022-12-06T22:34:56.110Z,100819.03
2022-12-06T22:37:28.626Z,100812.16
2022-12-06T22:39:58.663Z,100806.19
2022-12-06T22:42:28.391Z,100802.13
2022-12-06T22:44:57.906Z,100800.47
2022-12-06T22:47:30.107Z,100806.56
2022-12-06T22:49:59.981Z,100795.63
2022-12-06T22:52:29.745Z,100793.44
2022-12-06T22:55:00.329Z,100780.00
2022-12-06T22:57:29.959Z,100786.06
2022-12-06T22:59:59.818Z,100781.13
2022-12-06T23:02:32.434Z,100781.13
2022-12-06T23:05:02.042Z,100774.75
2022-12-06T23:07:31.650Z,100776.53
2022-12-06T23:10:01.541Z,100765.03
2022-12-06T23:12:31.270Z,100767.97
2022-12-06T23:15:01.319Z,100779.00
2022-12-06T23:17:34.110Z,100790.31
2022-12-06T23:20:03.947Z,100787.88
2022-12-06T23:22:34.528Z,100791.81
2022-12-06T23:25:04.153Z,100782.78
2022-12-06T23:27:33.746Z,100792.16
2022-12-06T23:30:03.623Z,100784.19
2022-12-06T23:32:35.999Z,100775.66
2022-12-06T23:35:05.621Z,100774.88
2022-12-06T23:37:35.137Z,100777.06
2022-12-06T23:40:04.793Z,100774.09
2022-12-06T23:42:34.325Z,100770.09
2022-12-06T23:45:03.889Z,100767.81
2022-12-06T23:47:36.310Z,100764.66
2022-12-06T23:50:06.077Z,100760.69
2022-12-06T23:52:35.663Z,100758.09
2022-12-06T23:55:05.337Z,100749.75
2022-12-06T23:57:34.879Z,100749.63
